Terminal Aerodrome Forecast
Issued by NWS Missoula, MT

Home | Current Version | Previous Version | Text Only | Print | Product List | Glossary On
Versions: 1 2 3 4 5 6 7 8 9 10 11 12 13 14 15 16 17 18 19 20 21
487
FTUS45 KMSO 252029 CCA
TAFBTM
TAF COR
KBTM 252029Z 2520/2618 VRB04KT P6SM SCT110
      TEMPO 2521/2523 21015G35KT 6SM -TSRA BKN060CB BKN100
     FM252300 16010KT P6SM VCSH OVC100
     FM260600 VRB04KT P6SM SCT100=

USA.gov is the U.S. government's official web portal to all federal, state and local government web resources and services.